Time;durP1;ratioP1;P1;durP2;ratioP2;P2;SDS_P1;SDS_P2;PMS_P1;PMS_P2;Temp;Humidity;BMP_temperature;BMP_pressure;BME280_temperature;BME280_humidity;BME280_pressure;Samples;Min_cycle;Max_cycle;Signal;HPM_P1;HPM_P2
2022/08/08 00:01:43;;;;;;;;;;;21.20;71.60;;;;;;4938651;28;19966;-75
2022/08/08 00:04:15;;;;;;;;;;;21.20;71.60;;;;;;4940331;28;19926;-75
2022/08/08 00:06:45;;;;;;;;;;;21.20;71.70;;;;;;4947278;28;19927;-75
2022/08/08 00:09:18;;;;;;;;;;;21.10;71.60;;;;;;4938102;28;20370;-75
2022/08/08 00:11:46;;;;;;;;;;;21.10;71.70;;;;;;4942214;28;20018;-76
2022/08/08 00:14:19;;;;;;;;;;;21.00;71.60;;;;;;4943738;28;19927;-75
2022/08/08 00:16:49;;;;;;;;;;;21.00;71.70;;;;;;4940232;28;19973;-75
2022/08/08 00:19:20;;;;;;;;;;;21.00;71.70;;;;;;4938534;28;19953;-76
2022/08/08 00:21:49;;;;;;;;;;;21.00;71.80;;;;;;4943137;28;19942;-77
2022/08/08 00:24:18;;;;;;;;;;;20.90;71.90;;;;;;4943920;28;19930;-76
2022/08/08 00:26:48;;;;;;;;;;;20.90;71.90;;;;;;4935650;28;20010;-76
2022/08/08 00:29:19;;;;;;;;;;;20.90;72.00;;;;;;4949631;28;20318;-75
2022/08/08 00:31:48;;;;;;;;;;;20.80;71.90;;;;;;4939532;28;19934;-76
2022/08/08 00:37:13;;;;;;;;;;;20.80;72.00;;;;;;4940732;28;20572;-76
2022/08/08 00:39:44;;;;;;;;;;;20.80;72.10;;;;;;4946178;28;19974;-75
2022/08/08 00:42:37;;;;;;;;;;;20.70;72.10;;;;;;4937831;28;19981;-76
2022/08/08 00:45:18;;;;;;;;;;;20.70;72.10;;;;;;4939882;28;19993;-75
2022/08/08 00:48:04;;;;;;;;;;;20.70;72.10;;;;;;4953611;28;20834;-75
2022/08/08 00:51:05;;;;;;;;;;;20.60;72.10;;;;;;4962271;28;20317;-75
2022/08/08 00:53:49;;;;;;;;;;;20.60;72.10;;;;;;4945073;28;19930;-75
2022/08/08 00:56:37;;;;;;;;;;;20.60;72.10;;;;;;4937866;28;20041;-74
2022/08/08 00:59:30;;;;;;;;;;;20.50;72.10;;;;;;4948743;28;19926;-75
2022/08/08 01:02:03;;;;;;;;;;;20.50;72.10;;;;;;4938669;28;19930;-75
2022/08/08 01:04:48;;;;;;;;;;;20.50;72.20;;;;;;4958681;28;20285;-75
2022/08/08 01:07:39;;;;;;;;;;;20.40;72.20;;;;;;4955650;28;19962;-74
2022/08/08 01:10:26;;;;;;;;;;;20.40;72.20;;;;;;4941210;28;20410;-75
2022/08/08 01:13:26;;;;;;;;;;;20.40;72.20;;;;;;4947029;28;19926;-75
2022/08/08 01:16:02;;;;;;;;;;;20.30;72.20;;;;;;4936042;28;19933;-75
2022/08/08 01:18:47;;;;;;;;;;;20.30;72.20;;;;;;4942822;28;19926;-74
2022/08/08 01:21:24;;;;;;;;;;;20.20;72.20;;;;;;4952519;28;20364;-75
2022/08/08 01:24:21;;;;;;;;;;;20.20;72.20;;;;;;4954047;28;19931;-75
2022/08/08 01:27:18;;;;;;;;;;;20.20;72.30;;;;;;4943433;28;19927;-75
2022/08/08 01:30:03;;;;;;;;;;;20.10;72.30;;;;;;4938719;28;19927;-75
2022/08/08 01:32:52;;;;;;;;;;;20.10;72.40;;;;;;5014285;23;19932;-75
2022/08/08 01:38:10;;;;;;;;;;;20.00;72.30;;;;;;4954761;23;19934;-75
2022/08/08 01:40:46;;;;;;;;;;;20.00;72.40;;;;;;4951813;28;20393;-74
2022/08/08 01:43:21;;;;;;;;;;;19.90;72.30;;;;;;4941694;28;20021;-75
2022/08/08 01:45:54;;;;;;;;;;;19.90;72.30;;;;;;4926429;28;19974;-75
2022/08/08 01:48:27;;;;;;;;;;;19.90;72.40;;;;;;4919167;29;19931;-74
2022/08/08 01:51:10;;;;;;;;;;;19.80;72.40;;;;;;4923878;29;19927;-75
2022/08/08 01:53:46;;;;;;;;;;;19.80;72.50;;;;;;4931237;28;19934;-75
2022/08/08 01:56:20;;;;;;;;;;;19.80;72.40;;;;;;4915708;29;19926;-77
2022/08/08 01:58:52;;;;;;;;;;;19.70;72.40;;;;;;4920435;29;19998;-75
2022/08/08 02:01:25;;;;;;;;;;;19.70;72.40;;;;;;4921215;29;20468;-74
2022/08/08 02:04:07;;;;;;;;;;;19.70;72.60;;;;;;4917938;29;20596;-75
2022/08/08 02:06:49;;;;;;;;;;;19.60;72.60;;;;;;4926745;29;19934;-74
2022/08/08 02:09:24;;;;;;;;;;;19.60;72.70;;;;;;4938761;28;19997;-75
2022/08/08 02:11:51;;;;;;;;;;;19.60;72.80;;;;;;4919160;29;19933;-74
2022/08/08 02:14:25;;;;;;;;;;;19.50;72.70;;;;;;4921058;29;19982;-75
2022/08/08 02:16:55;;;;;;;;;;;19.50;72.70;;;;;;4921853;29;20348;-75
2022/08/08 02:19:31;;;;;;;;;;;19.50;72.80;;;;;;4921382;29;19926;-75
2022/08/08 02:24:50;;;;;;;;;;;19.40;73.00;;;;;;4925647;29;19931;-75
2022/08/08 02:27:18;;;;;;;;;;;19.40;72.90;;;;;;4917318;29;19939;-75
2022/08/08 02:29:57;;;;;;;;;;;19.40;73.00;;;;;;4926627;29;19934;-75
2022/08/08 02:32:31;;;;;;;;;;;19.30;73.00;;;;;;4916885;29;19938;-74
2022/08/08 02:35:04;;;;;;;;;;;19.30;72.90;;;;;;4930972;28;19934;-75
2022/08/08 02:37:39;;;;;;;;;;;19.20;72.90;;;;;;4922320;29;19935;-75
2022/08/08 02:40:09;;;;;;;;;;;19.20;73.00;;;;;;4927601;29;20457;-75
2022/08/08 02:42:53;;;;;;;;;;;19.20;73.10;;;;;;4920025;29;20021;-75
2022/08/08 02:45:35;;;;;;;;;;;19.20;73.20;;;;;;4924924;29;20034;-74
2022/08/08 02:48:26;;;;;;;;;;;19.10;73.10;;;;;;4918572;29;19931;-75
2022/08/08 02:51:17;;;;;;;;;;;19.10;73.10;;;;;;4908632;29;19926;-75
2022/08/08 02:53:53;;;;;;;;;;;19.10;73.30;;;;;;4923266;29;19926;-75
2022/08/08 02:56:34;;;;;;;;;;;19.10;73.30;;;;;;4921692;29;19935;-75
2022/08/08 02:59:22;;;;;;;;;;;19.00;73.20;;;;;;4928553;29;20043;-74
2022/08/08 03:02:13;;;;;;;;;;;19.00;73.40;;;;;;4914577;29;19937;-73
2022/08/08 03:04:52;;;;;;;;;;;18.90;73.30;;;;;;4938114;28;19935;-75
2022/08/08 03:07:42;;;;;;;;;;;18.90;73.40;;;;;;4921173;29;19987;-74
2022/08/08 03:10:28;;;;;;;;;;;18.90;73.40;;;;;;4913359;29;19962;-74
2022/08/08 03:13:23;;;;;;;;;;;18.90;73.60;;;;;;4940862;28;20030;-74
2022/08/08 03:15:56;;;;;;;;;;;18.80;73.60;;;;;;4922262;29;19981;-74
2022/08/08 03:18:27;;;;;;;;;;;18.80;73.50;;;;;;4913201;29;19927;-74
2022/08/08 03:20:53;;;;;;;;;;;18.70;73.50;;;;;;4924932;29;20361;-73
2022/08/08 03:23:26;;;;;;;;;;;18.70;73.50;;;;;;4927011;29;19935;-74
2022/08/08 03:25:55;;;;;;;;;;;18.70;73.70;;;;;;4928172;29;19978;-74
2022/08/08 03:28:26;;;;;;;;;;;18.70;73.50;;;;;;4924327;29;19942;-74
2022/08/08 03:30:54;;;;;;;;;;;18.60;73.40;;;;;;4915273;29;20467;-74
2022/08/08 03:33:20;;;;;;;;;;;18.60;73.60;;;;;;4928672;29;19978;-74
2022/08/08 03:35:55;;;;;;;;;;;18.60;73.80;;;;;;4928516;29;19923;-74
2022/08/08 03:38:22;;;;;;;;;;;18.50;73.90;;;;;;4925540;29;20530;-73
2022/08/08 03:40:53;;;;;;;;;;;18.50;74.00;;;;;;4928129;29;19949;-73
2022/08/08 03:43:23;;;;;;;;;;;18.50;74.10;;;;;;4929031;29;19934;-74
2022/08/08 03:45:54;;;;;;;;;;;18.50;74.20;;;;;;4920440;29;19927;-75
2022/08/08 03:48:21;;;;;;;;;;;18.40;73.80;;;;;;4920119;29;20393;-75
2022/08/08 03:50:49;;;;;;;;;;;18.40;74.00;;;;;;4903608;29;19933;-74
2022/08/08 03:53:20;;;;;;;;;;;18.30;73.90;;;;;;4921686;29;20401;-75
2022/08/08 03:55:49;;;;;;;;;;;18.30;74.10;;;;;;4923806;29;20324;-75
2022/08/08 03:58:20;;;;;;;;;;;18.30;74.30;;;;;;4924838;29;20092;-75
2022/08/08 04:00:51;;;;;;;;;;;18.30;74.30;;;;;;4924759;29;19927;-75
2022/08/08 04:03:18;;;;;;;;;;;18.20;74.40;;;;;;4929342;29;19930;-75
2022/08/08 04:05:46;;;;;;;;;;;18.20;74.50;;;;;;4918170;29;20372;-74
2022/08/08 04:08:16;;;;;;;;;;;18.20;74.10;;;;;;4924239;29;19955;-75
2022/08/08 04:10:46;;;;;;;;;;;18.20;74.20;;;;;;4925296;29;19926;-75
2022/08/08 04:13:13;;;;;;;;;;;18.10;74.10;;;;;;4943609;29;20038;-75
2022/08/08 04:15:42;;;;;;;;;;;18.10;74.00;;;;;;4931068;29;19933;-74
2022/08/08 04:18:11;;;;;;;;;;;18.00;73.90;;;;;;4927341;29;19927;-74
2022/08/08 04:20:38;;;;;;;;;;;18.00;74.50;;;;;;4929476;29;19941;-75
2022/08/08 04:23:06;;;;;;;;;;;18.00;74.60;;;;;;4930725;29;19956;-75
2022/08/08 04:25:33;;;;;;;;;;;18.00;74.70;;;;;;4921654;29;19955;-74
2022/08/08 04:28:00;;;;;;;;;;;18.00;74.80;;;;;;4927628;29;19927;-75
2022/08/08 04:30:27;;;;;;;;;;;17.90;74.50;;;;;;4926170;29;19930;-75
2022/08/08 04:32:56;;;;;;;;;;;17.90;74.30;;;;;;4925633;29;19931;-74
2022/08/08 04:35:28;;;;;;;;;;;17.90;74.50;;;;;;4919778;29;19927;-74
2022/08/08 04:37:55;;;;;;;;;;;17.90;74.60;;;;;;4918678;29;20234;-75
2022/08/08 04:40:26;;;;;;;;;;;17.80;74.60;;;;;;4918536;29;19987;-74
2022/08/08 04:42:56;;;;;;;;;;;17.80;74.80;;;;;;4925779;29;19926;-74
2022/08/08 04:45:23;;;;;;;;;;;17.80;74.90;;;;;;4925889;29;19927;-74
2022/08/08 04:47:50;;;;;;;;;;;17.80;74.90;;;;;;4940479;29;19931;-75
2022/08/08 04:50:19;;;;;;;;;;;17.80;74.70;;;;;;4921021;29;19931;-74
2022/08/08 04:52:46;;;;;;;;;;;17.70;74.70;;;;;;4914510;29;19946;-75
2022/08/08 04:55:17;;;;;;;;;;;17.70;74.70;;;;;;4921391;29;20358;-75
2022/08/08 04:57:44;;;;;;;;;;;17.70;74.70;;;;;;4916035;29;19930;-74
2022/08/08 05:00:11;;;;;;;;;;;17.70;74.80;;;;;;4926075;29;19926;-74
2022/08/08 05:02:38;;;;;;;;;;;17.60;74.90;;;;;;4927179;29;19990;-75
2022/08/08 05:05:05;;;;;;;;;;;17.60;75.10;;;;;;4931909;29;19927;-74
2022/08/08 05:07:36;;;;;;;;;;;17.60;74.90;;;;;;4925361;29;20437;-75
2022/08/08 05:10:05;;;;;;;;;;;17.60;74.80;;;;;;4930402;29;19935;-75
2022/08/08 05:12:34;;;;;;;;;;;17.50;74.90;;;;;;4926678;29;19942;-74
2022/08/08 05:15:01;;;;;;;;;;;17.50;74.80;;;;;;4923264;29;19927;-75
2022/08/08 05:17:28;;;;;;;;;;;17.50;74.70;;;;;;4917465;29;20348;-74
2022/08/08 05:19:55;;;;;;;;;;;17.40;75.00;;;;;;4916241;29;19994;-74
2022/08/08 05:22:27;;;;;;;;;;;17.40;74.70;;;;;;4914596;29;19927;-77
2022/08/08 05:24:56;;;;;;;;;;;17.30;74.40;;;;;;4923835;29;20023;-76
2022/08/08 05:27:24;;;;;;;;;;;17.20;74.90;;;;;;4931891;28;19939;-75
2022/08/08 05:29:52;;;;;;;;;;;17.10;74.90;;;;;;4918111;29;19990;-75
2022/08/08 05:32:24;;;;;;;;;;;17.00;74.90;;;;;;4919142;29;19950;-74
2022/08/08 05:34:51;;;;;;;;;;;16.90;75.00;;;;;;4920404;29;19927;-75
2022/08/08 05:37:23;;;;;;;;;;;16.90;75.90;;;;;;4920252;29;19950;-75
2022/08/08 05:39:51;;;;;;;;;;;16.80;76.60;;;;;;4924184;29;19931;-74
2022/08/08 05:42:20;;;;;;;;;;;16.80;77.30;;;;;;4919352;29;20068;-75
2022/08/08 05:44:48;;;;;;;;;;;16.70;77.50;;;;;;4921044;29;20318;-75
2022/08/08 05:47:16;;;;;;;;;;;16.80;77.70;;;;;;4922446;29;19974;-75
2022/08/08 05:49:45;;;;;;;;;;;16.90;78.20;;;;;;4922553;29;19934;-75
2022/08/08 05:52:15;;;;;;;;;;;16.90;78.70;;;;;;4922409;29;19931;-75
2022/08/08 05:54:44;;;;;;;;;;;16.90;78.50;;;;;;4927679;29;20370;-75
2022/08/08 05:57:17;;;;;;;;;;;16.80;78.40;;;;;;4924001;29;19926;-74
2022/08/08 05:59:48;;;;;;;;;;;16.90;78.40;;;;;;4923403;29;19962;-75
2022/08/08 06:05:09;;;;;;;;;;;16.90;78.20;;;;;;4928365;29;19945;-74
2022/08/08 06:07:38;;;;;;;;;;;16.90;78.20;;;;;;4927925;29;20364;-75
2022/08/08 06:10:06;;;;;;;;;;;16.90;78.10;;;;;;4926338;29;19927;-74
2022/08/08 06:12:35;;;;;;;;;;;16.90;78.00;;;;;;4925601;29;19952;-74
2022/08/08 06:15:05;;;;;;;;;;;17.00;78.20;;;;;;4930347;29;20301;-75
2022/08/08 06:17:35;;;;;;;;;;;17.00;78.20;;;;;;4926713;29;20366;-75
2022/08/08 06:20:04;;;;;;;;;;;17.00;78.00;;;;;;4928427;29;19957;-74
2022/08/08 06:22:31;;;;;;;;;;;17.00;78.00;;;;;;4927835;29;19927;-75
2022/08/08 06:25:00;;;;;;;;;;;17.00;78.00;;;;;;4940107;28;19927;-75
2022/08/08 06:27:31;;;;;;;;;;;17.00;78.00;;;;;;4928009;29;19931;-74
2022/08/08 06:30:02;;;;;;;;;;;17.10;78.20;;;;;;4927493;29;19930;-75
2022/08/08 06:32:41;;;;;;;;;;;17.10;78.20;;;;;;4927249;29;19985;-75
2022/08/08 06:35:10;;;;;;;;;;;17.10;78.50;;;;;;4920798;29;19927;-75
2022/08/08 06:37:43;;;;;;;;;;;17.20;78.60;;;;;;4928607;29;19931;-75
2022/08/08 06:40:14;;;;;;;;;;;17.30;78.80;;;;;;4919751;29;19962;-75
2022/08/08 06:42:46;;;;;;;;;;;17.30;78.90;;;;;;4925978;29;19927;-75
2022/08/08 06:45:14;;;;;;;;;;;17.30;78.70;;;;;;4922697;29;19934;-75
2022/08/08 06:47:42;;;;;;;;;;;17.40;78.90;;;;;;4923627;29;19927;-75
2022/08/08 06:50:09;;;;;;;;;;;17.40;78.80;;;;;;4925974;29;19962;-75
2022/08/08 06:52:36;;;;;;;;;;;17.40;78.80;;;;;;4927851;29;20045;-75
2022/08/08 06:55:05;;;;;;;;;;;17.40;79.20;;;;;;4926491;29;20390;-75
2022/08/08 06:57:32;;;;;;;;;;;17.50;79.40;;;;;;4921035;29;20017;-75
2022/08/08 06:59:59;;;;;;;;;;;17.50;79.40;;;;;;4925700;29;19930;-74
2022/08/08 07:02:27;;;;;;;;;;;17.50;79.50;;;;;;4926091;29;19938;-75
2022/08/08 07:05:02;;;;;;;;;;;17.60;79.90;;;;;;4927753;29;19928;-75
2022/08/08 07:07:34;;;;;;;;;;;17.60;80.00;;;;;;4924367;29;20025;-75
2022/08/08 07:10:04;;;;;;;;;;;17.70;80.10;;;;;;4929520;29;19931;-75
2022/08/08 07:12:39;;;;;;;;;;;17.70;80.10;;;;;;4927859;29;20371;-74
2022/08/08 07:15:08;;;;;;;;;;;17.70;80.10;;;;;;4925553;29;19926;-75
2022/08/08 07:17:37;;;;;;;;;;;17.70;80.10;;;;;;4929111;29;19950;-75
2022/08/08 07:20:07;;;;;;;;;;;17.70;80.10;;;;;;4940659;29;19931;-75
2022/08/08 07:22:38;;;;;;;;;;;17.80;80.20;;;;;;4918605;29;20014;-75
2022/08/08 07:25:05;;;;;;;;;;;17.80;80.10;;;;;;4927010;29;19927;-75
2022/08/08 07:27:35;;;;;;;;;;;17.80;80.10;;;;;;4924737;29;19927;-74
2022/08/08 07:30:02;;;;;;;;;;;17.80;80.00;;;;;;4928991;29;19933;-74
2022/08/08 07:32:31;;;;;;;;;;;17.80;79.90;;;;;;4920120;29;19927;-75
2022/08/08 07:35:14;;;;;;;;;;;17.90;80.00;;;;;;4927291;29;20017;-75
2022/08/08 07:37:46;;;;;;;;;;;17.90;80.00;;;;;;4936089;28;19934;-75
2022/08/08 07:40:14;;;;;;;;;;;17.90;80.10;;;;;;4920289;29;19933;-74
2022/08/08 07:42:42;;;;;;;;;;;18.00;80.20;;;;;;4926446;29;19998;-75
2022/08/08 07:45:11;;;;;;;;;;;18.00;80.30;;;;;;4943226;28;19942;-75
2022/08/08 07:47:42;;;;;;;;;;;18.00;80.10;;;;;;4926698;29;19934;-74
2022/08/08 07:50:13;;;;;;;;;;;18.00;80.00;;;;;;4934851;28;19927;-75
2022/08/08 07:52:43;;;;;;;;;;;18.00;80.00;;;;;;4928175;29;19941;-75
2022/08/08 07:55:13;;;;;;;;;;;18.00;80.00;;;;;;4924375;29;19942;-75
2022/08/08 07:57:46;;;;;;;;;;;18.00;80.10;;;;;;4933776;28;19935;-74
2022/08/08 08:00:14;;;;;;;;;;;18.10;80.20;;;;;;4925845;29;19935;-75
2022/08/08 08:02:43;;;;;;;;;;;18.10;80.00;;;;;;4932551;29;19927;-75
2022/08/08 08:05:17;;;;;;;;;;;18.10;80.00;;;;;;4923915;29;20295;-74
2022/08/08 08:07:46;;;;;;;;;;;18.10;80.00;;;;;;4929690;29;19949;-75
2022/08/08 08:10:16;;;;;;;;;;;18.10;80.20;;;;;;4927064;29;20651;-75
2022/08/08 08:12:47;;;;;;;;;;;18.10;80.30;;;;;;4930694;29;19926;-75
2022/08/08 08:15:16;;;;;;;;;;;18.10;80.20;;;;;;4926238;29;20275;-75
2022/08/08 08:17:45;;;;;;;;;;;18.20;80.20;;;;;;4933657;29;20431;-75
2022/08/08 08:20:14;;;;;;;;;;;18.10;80.00;;;;;;4931193;29;20413;-75
2022/08/08 08:22:42;;;;;;;;;;;18.20;80.30;;;;;;4925173;29;19927;-75
2022/08/08 08:25:10;;;;;;;;;;;18.20;80.30;;;;;;4929900;29;19931;-75
2022/08/08 08:27:39;;;;;;;;;;;18.20;80.30;;;;;;4928615;29;19927;-75
2022/08/08 08:30:06;;;;;;;;;;;18.20;80.50;;;;;;4932563;29;20389;-75
2022/08/08 08:32:33;;;;;;;;;;;18.30;80.60;;;;;;4926084;29;19927;-75
2022/08/08 08:35:01;;;;;;;;;;;18.30;80.50;;;;;;4931110;29;19931;-75
2022/08/08 08:37:28;;;;;;;;;;;18.30;80.40;;;;;;4928879;29;19950;-75
2022/08/08 08:39:57;;;;;;;;;;;18.30;80.40;;;;;;4928830;29;19927;-74
2022/08/08 08:42:24;;;;;;;;;;;18.30;80.60;;;;;;4929971;29;19926;-75
2022/08/08 08:44:51;;;;;;;;;;;18.30;80.60;;;;;;4944470;29;19927;-75
2022/08/08 08:47:18;;;;;;;;;;;18.30;80.70;;;;;;4943615;28;20002;-75
2022/08/08 08:49:46;;;;;;;;;;;18.40;80.80;;;;;;4925454;29;19934;-75
2022/08/08 08:52:16;;;;;;;;;;;18.40;80.70;;;;;;4927533;29;19931;-75
2022/08/08 08:54:43;;;;;;;;;;;18.40;80.90;;;;;;4920185;29;19970;-75
2022/08/08 08:57:12;;;;;;;;;;;18.40;80.90;;;;;;4927784;29;19958;-75
2022/08/08 08:59:40;;;;;;;;;;;18.40;80.90;;;;;;4920880;29;19926;-75
2022/08/08 09:02:13;;;;;;;;;;;18.40;80.90;;;;;;4925384;29;19927;-75
2022/08/08 09:04:40;;;;;;;;;;;18.40;80.90;;;;;;4925993;29;19942;-75
2022/08/08 09:07:15;;;;;;;;;;;18.50;81.00;;;;;;4929066;29;20293;-75
2022/08/08 09:09:46;;;;;;;;;;;18.50;81.10;;;;;;4931727;28;20310;-75
2022/08/08 09:12:19;;;;;;;;;;;18.50;81.00;;;;;;4928580;29;19941;-74
2022/08/08 09:14:46;;;;;;;;;;;18.50;81.10;;;;;;4925431;29;19960;-75
2022/08/08 09:17:16;;;;;;;;;;;18.60;81.30;;;;;;4930903;29;20409;-74
2022/08/08 09:19:43;;;;;;;;;;;18.60;81.20;;;;;;4927958;29;19933;-74
2022/08/08 09:22:11;;;;;;;;;;;18.60;81.10;;;;;;4922333;29;19930;-74
2022/08/08 09:24:38;;;;;;;;;;;18.60;81.00;;;;;;4923398;29;20393;-75
2022/08/08 09:27:07;;;;;;;;;;;18.60;80.90;;;;;;4926105;29;19933;-75
2022/08/08 09:29:43;;;;;;;;;;;18.60;80.90;;;;;;4922080;29;19985;-75
2022/08/08 09:32:13;;;;;;;;;;;18.70;80.90;;;;;;4924835;29;20420;-75
2022/08/08 09:34:49;;;;;;;;;;;18.70;80.80;;;;;;4929554;29;20460;-75
2022/08/08 09:37:18;;;;;;;;;;;18.70;80.80;;;;;;4928391;29;19982;-75
2022/08/08 09:39:52;;;;;;;;;;;18.70;80.80;;;;;;4926499;29;19998;-75
2022/08/08 09:42:22;;;;;;;;;;;18.70;80.80;;;;;;4921193;29;19934;-75
2022/08/08 09:44:58;;;;;;;;;;;18.70;80.80;;;;;;4925790;29;20309;-75
2022/08/08 09:47:29;;;;;;;;;;;18.70;80.60;;;;;;4923794;29;19983;-75
2022/08/08 09:49:57;;;;;;;;;;;18.80;80.60;;;;;;4926655;29;19935;-75
2022/08/08 09:52:28;;;;;;;;;;;18.80;80.70;;;;;;4930099;29;19989;-75
2022/08/08 09:54:55;;;;;;;;;;;18.80;80.70;;;;;;4925373;29;19982;-75
2022/08/08 09:57:26;;;;;;;;;;;18.80;80.40;;;;;;4923995;29;19974;-75
2022/08/08 09:59:56;;;;;;;;;;;18.90;80.30;;;;;;4922875;29;20221;-74
2022/08/08 10:02:23;;;;;;;;;;;18.80;80.00;;;;;;4924455;29;19934;-75
2022/08/08 10:04:50;;;;;;;;;;;18.90;80.00;;;;;;4929437;29;20438;-75
2022/08/08 10:07:18;;;;;;;;;;;18.90;79.70;;;;;;4921170;29;20378;-74
2022/08/08 10:09:49;;;;;;;;;;;18.90;79.50;;;;;;4924718;29;19974;-74
2022/08/08 10:12:17;;;;;;;;;;;18.90;80.20;;;;;;4924724;29;20405;-75
2022/08/08 10:14:44;;;;;;;;;;;18.90;79.60;;;;;;4924174;29;19927;-75
2022/08/08 10:17:12;;;;;;;;;;;18.90;79.70;;;;;;4922531;29;19981;-75
2022/08/08 10:19:40;;;;;;;;;;;19.00;79.70;;;;;;4931670;29;20409;-75
2022/08/08 10:22:08;;;;;;;;;;;19.00;79.40;;;;;;4930592;29;19927;-75
2022/08/08 10:24:35;;;;;;;;;;;18.90;79.30;;;;;;4919602;29;19935;-75
2022/08/08 10:27:03;;;;;;;;;;;19.00;79.40;;;;;;4928006;29;19927;-74
2022/08/08 10:29:38;;;;;;;;;;;19.00;79.30;;;;;;4928820;29;19966;-75
2022/08/08 10:34:57;;;;;;;;;;;19.00;79.10;;;;;;4927342;29;20286;-75
2022/08/08 10:37:26;;;;;;;;;;;19.00;79.10;;;;;;4927733;29;19978;-75
2022/08/08 10:39:53;;;;;;;;;;;19.10;79.10;;;;;;4928933;29;19930;-74
2022/08/08 10:42:22;;;;;;;;;;;19.10;79.20;;;;;;4926878;29;19927;-75
2022/08/08 10:44:49;;;;;;;;;;;19.10;79.20;;;;;;4928337;29;20301;-75
2022/08/08 10:47:17;;;;;;;;;;;19.10;79.20;;;;;;4926965;29;19974;-75
2022/08/08 10:49:50;;;;;;;;;;;19.10;79.10;;;;;;4926852;29;19927;-74
2022/08/08 10:52:24;;;;;;;;;;;19.20;79.10;;;;;;4924683;29;20425;-75
2022/08/08 10:54:54;;;;;;;;;;;19.20;79.10;;;;;;4927000;29;20477;-75
2022/08/08 10:57:21;;;;;;;;;;;19.20;79.10;;;;;;4926116;29;20386;-75
2022/08/08 10:59:51;;;;;;;;;;;19.20;79.20;;;;;;4919206;29;20394;-74
2022/08/08 11:02:22;;;;;;;;;;;19.20;79.20;;;;;;4923952;29;19927;-75
2022/08/08 11:04:50;;;;;;;;;;;19.20;79.00;;;;;;4925284;29;20382;-75
2022/08/08 11:07:25;;;;;;;;;;;19.30;79.00;;;;;;4923017;29;19937;-75
2022/08/08 11:09:52;;;;;;;;;;;19.30;78.90;;;;;;4923291;29;20405;-75
2022/08/08 11:12:19;;;;;;;;;;;19.30;78.90;;;;;;4918952;29;19974;-74
2022/08/08 11:14:53;;;;;;;;;;;19.30;78.70;;;;;;4925099;29;19935;-75
2022/08/08 11:17:25;;;;;;;;;;;19.40;78.60;;;;;;4937842;28;20455;-75
2022/08/08 11:19:52;;;;;;;;;;;19.40;78.60;;;;;;4927669;29;20028;-75
2022/08/08 11:22:23;;;;;;;;;;;19.40;78.30;;;;;;4932453;29;19934;-75
2022/08/08 11:24:53;;;;;;;;;;;19.40;78.20;;;;;;4924600;29;19934;-75
2022/08/08 11:27:20;;;;;;;;;;;19.40;78.10;;;;;;4929467;29;19966;-75
2022/08/08 11:29:48;;;;;;;;;;;19.40;77.90;;;;;;4923817;29;19934;-74
2022/08/08 11:32:16;;;;;;;;;;;19.40;77.80;;;;;;4929371;29;20025;-75
2022/08/08 11:34:46;;;;;;;;;;;19.40;77.60;;;;;;4929176;29;19935;-75
2022/08/08 11:37:13;;;;;;;;;;;19.50;77.40;;;;;;4930895;29;19934;-75
2022/08/08 11:39:40;;;;;;;;;;;19.50;77.40;;;;;;4931927;29;19958;-75
2022/08/08 11:42:08;;;;;;;;;;;19.50;77.40;;;;;;4929394;29;19934;-75
2022/08/08 11:44:36;;;;;;;;;;;19.50;77.40;;;;;;4925772;29;19934;-75
2022/08/08 11:47:03;;;;;;;;;;;19.50;77.30;;;;;;4927690;29;19935;-75
2022/08/08 11:49:31;;;;;;;;;;;19.50;77.20;;;;;;4927676;29;20442;-75
2022/08/08 11:51:58;;;;;;;;;;;19.50;76.90;;;;;;4920251;29;19990;-75
2022/08/08 11:54:31;;;;;;;;;;;19.60;76.50;;;;;;4930101;29;19970;-75
2022/08/08 11:57:10;;;;;;;;;;;19.60;76.10;;;;;;4924571;29;19934;-75
2022/08/08 11:59:42;;;;;;;;;;;19.60;75.90;;;;;;4939992;28;20014;-75
2022/08/08 12:02:09;;;;;;;;;;;19.60;75.80;;;;;;4926946;29;19927;-75
2022/08/08 12:04:36;;;;;;;;;;;19.60;75.70;;;;;;4929869;29;19990;-75
2022/08/08 12:07:04;;;;;;;;;;;19.60;75.60;;;;;;4929568;29;19935;-75
2022/08/08 12:09:31;;;;;;;;;;;19.70;75.60;;;;;;4926990;29;20340;-75
2022/08/08 12:11:57;;;;;;;;;;;19.70;75.70;;;;;;4927800;29;20026;-74
2022/08/08 12:14:26;;;;;;;;;;;19.70;75.80;;;;;;4930398;29;19950;-75
2022/08/08 12:16:53;;;;;;;;;;;19.70;75.90;;;;;;4928859;29;19931;-75
2022/08/08 12:19:20;;;;;;;;;;;19.80;75.90;;;;;;4929016;29;19991;-75
2022/08/08 12:21:47;;;;;;;;;;;19.80;76.10;;;;;;4929289;29;20283;-75
2022/08/08 12:24:15;;;;;;;;;;;19.80;76.00;;;;;;4930409;29;20021;-75
2022/08/08 12:26:43;;;;;;;;;;;19.80;75.70;;;;;;4922682;29;20407;-75
2022/08/08 12:29:21;;;;;;;;;;;19.90;75.50;;;;;;4929361;29;19975;-76
2022/08/08 12:32:00;;;;;;;;;;;19.90;75.20;;;;;;4930877;29;20013;-75
2022/08/08 12:34:38;;;;;;;;;;;19.90;76.20;;;;;;4930727;29;19968;-75
2022/08/08 12:37:05;;;;;;;;;;;19.90;76.60;;;;;;4928921;29;19954;-75
2022/08/08 12:39:32;;;;;;;;;;;19.90;75.90;;;;;;4928462;29;20287;-75
2022/08/08 12:41:59;;;;;;;;;;;20.00;76.20;;;;;;4931296;29;20029;-75
2022/08/08 12:44:27;;;;;;;;;;;20.00;75.80;;;;;;4928552;29;19930;-75
2022/08/08 12:46:56;;;;;;;;;;;20.10;75.40;;;;;;4926342;29;19938;-75
2022/08/08 12:49:27;;;;;;;;;;;20.10;75.40;;;;;;4929959;29;20357;-75
2022/08/08 12:51:54;;;;;;;;;;;20.10;76.00;;;;;;4924214;29;19927;-74
2022/08/08 12:54:21;;;;;;;;;;;20.20;76.10;;;;;;4931040;29;20367;-75
2022/08/08 12:56:48;;;;;;;;;;;20.20;76.50;;;;;;4928125;29;19927;-75
2022/08/08 12:59:15;;;;;;;;;;;20.30;76.20;;;;;;4930566;29;19930;-75
2022/08/08 13:01:49;;;;;;;;;;;20.30;76.20;;;;;;4928307;29;19931;-75
2022/08/08 13:04:18;;;;;;;;;;;20.30;75.90;;;;;;4927674;29;19930;-75
2022/08/08 13:06:58;;;;;;;;;;;20.40;75.30;;;;;;4932114;29;19927;-74
2022/08/08 13:09:29;;;;;;;;;;;20.40;74.70;;;;;;4929072;29;19934;-74
2022/08/08 13:11:56;;;;;;;;;;;20.40;75.20;;;;;;4923257;29;19993;-75
2022/08/08 13:14:35;;;;;;;;;;;20.50;75.40;;;;;;4926877;29;19930;-75
2022/08/08 13:17:02;;;;;;;;;;;20.50;75.00;;;;;;4940383;28;19982;-74
2022/08/08 13:19:30;;;;;;;;;;;20.60;74.80;;;;;;4927572;29;19974;-75
2022/08/08 13:21:57;;;;;;;;;;;20.60;74.50;;;;;;4928056;29;20404;-75
2022/08/08 13:24:24;;;;;;;;;;;20.70;74.60;;;;;;4924226;29;19927;-75
2022/08/08 13:26:59;;;;;;;;;;;20.70;74.40;;;;;;4923081;29;19977;-75
2022/08/08 13:29:26;;;;;;;;;;;20.80;74.80;;;;;;4928706;29;19927;-74
2022/08/08 13:31:53;;;;;;;;;;;20.80;74.30;;;;;;4924843;29;19962;-75
2022/08/08 13:34:20;;;;;;;;;;;20.80;74.20;;;;;;4924768;29;19926;-74
2022/08/08 13:36:49;;;;;;;;;;;20.90;73.80;;;;;;4925684;29;20382;-75
2022/08/08 13:39:16;;;;;;;;;;;21.00;73.90;;;;;;4928946;29;19926;-75
2022/08/08 13:41:45;;;;;;;;;;;21.00;73.80;;;;;;4926446;29;20323;-74
2022/08/08 13:44:12;;;;;;;;;;;21.00;73.80;;;;;;4923424;29;20386;-75
2022/08/08 13:46:39;;;;;;;;;;;21.10;73.80;;;;;;4926727;29;19926;-75
2022/08/08 13:49:15;;;;;;;;;;;21.10;73.50;;;;;;4927940;29;19982;-75
2022/08/08 13:51:52;;;;;;;;;;;21.20;73.40;;;;;;4928208;29;19931;-74
2022/08/08 13:54:20;;;;;;;;;;;21.20;73.70;;;;;;4927246;29;20397;-75
2022/08/08 13:56:47;;;;;;;;;;;21.30;73.90;;;;;;4928446;29;19933;-75
2022/08/08 13:59:13;;;;;;;;;;;21.30;73.60;;;;;;4927032;29;19970;-75
2022/08/08 14:01:40;;;;;;;;;;;21.40;73.60;;;;;;4922491;29;20441;-76
2022/08/08 14:04:11;;;;;;;;;;;21.40;73.60;;;;;;4920603;29;20017;-76
2022/08/08 14:06:46;;;;;;;;;;;21.50;73.30;;;;;;4927032;29;19970;-75
2022/08/08 14:09:15;;;;;;;;;;;21.50;72.70;;;;;;4923605;29;19934;-75
2022/08/08 14:11:44;;;;;;;;;;;21.60;73.70;;;;;;4926406;29;20405;-75
2022/08/08 14:14:11;;;;;;;;;;;21.60;73.20;;;;;;4928184;29;19933;-76
2022/08/08 14:16:48;;;;;;;;;;;21.70;72.70;;;;;;4928955;29;19937;-76
2022/08/08 14:19:14;;;;;;;;;;;21.80;73.00;;;;;;4926539;29;20029;-75
2022/08/08 14:21:43;;;;;;;;;;;21.80;72.00;;;;;;4927586;29;20037;-76
2022/08/08 14:24:12;;;;;;;;;;;21.80;72.30;;;;;;4924980;29;20381;-76
2022/08/08 14:26:43;;;;;;;;;;;21.90;72.30;;;;;;4929332;29;19927;-76
2022/08/08 14:29:19;;;;;;;;;;;22.00;72.50;;;;;;4923972;29;19927;-75
2022/08/08 14:31:49;;;;;;;;;;;22.00;72.00;;;;;;4940318;28;19927;-75
2022/08/08 14:34:17;;;;;;;;;;;22.00;71.90;;;;;;4929912;29;19927;-76
2022/08/08 14:36:48;;;;;;;;;;;22.10;72.10;;;;;;4924503;29;19930;-75
2022/08/08 14:39:17;;;;;;;;;;;22.20;72.80;;;;;;4928212;29;19926;-74
2022/08/08 14:41:46;;;;;;;;;;;22.20;72.80;;;;;;4928198;29;20362;-75
2022/08/08 14:44:13;;;;;;;;;;;22.30;72.50;;;;;;4930831;29;19931;-76
2022/08/08 14:46:40;;;;;;;;;;;22.40;72.70;;;;;;4923878;29;20394;-76
2022/08/08 14:49:10;;;;;;;;;;;22.40;72.30;;;;;;4925006;29;19926;-76
2022/08/08 14:51:38;;;;;;;;;;;22.40;72.10;;;;;;4927799;29;20380;-75
2022/08/08 14:54:05;;;;;;;;;;;22.40;71.90;;;;;;4927019;29;19954;-76